sensor_id;sensor_type;location;lat;lon;timestamp;pressure;altitude;pressure_sealevel;temperature;humidity
77869;BME280;67231;59.144;37.934;2023-06-22T00:02:19;100412.88;;;13.70;59.14
77869;BME280;67231;59.144;37.934;2023-06-22T00:04:45;100409.38;;;13.69;58.85
77869;BME280;67231;59.144;37.934;2023-06-22T00:07:12;100405.72;;;13.70;59.11
77869;BME280;67231;59.144;37.934;2023-06-22T00:09:38;100397.88;;;13.69;58.76
77869;BME280;67231;59.144;37.934;2023-06-22T00:12:05;100408.38;;;13.70;59.57
77869;BME280;67231;59.144;37.934;2023-06-22T00:14:31;100391.72;;;13.68;59.34
77869;BME280;67231;59.144;37.934;2023-06-22T00:16:58;100386.53;;;13.66;59.35
77869;BME280;67231;59.144;37.934;2023-06-22T00:19:25;100390.03;;;13.67;59.55
77869;BME280;67231;59.144;37.934;2023-06-22T00:21:51;100390.03;;;13.67;59.46
77869;BME280;67231;59.144;37.934;2023-06-22T00:24:21;100398.19;;;13.65;59.76
77869;BME280;67231;59.144;37.934;2023-06-22T00:26:48;100404.38;;;13.66;59.81
77869;BME280;67231;59.144;37.934;2023-06-22T00:29:14;100403.53;;;13.65;59.43
77869;BME280;67231;59.144;37.934;2023-06-22T00:31:41;100410.53;;;13.66;59.89
77869;BME280;67231;59.144;37.934;2023-06-22T00:34:08;100406.19;;;13.65;60.30
77869;BME280;67231;59.144;37.934;2023-06-22T00:36:36;100409.72;;;13.66;60.19
77869;BME280;67231;59.144;37.934;2023-06-22T00:39:03;100393.72;;;13.66;60.20
77869;BME280;67231;59.144;37.934;2023-06-22T00:41:31;100400.72;;;13.67;60.09
77869;BME280;67231;59.144;37.934;2023-06-22T00:43:57;100403.22;;;13.69;60.24
77869;BME280;67231;59.144;37.934;2023-06-22T00:46:24;100414.69;;;13.69;59.82
77869;BME280;67231;59.144;37.934;2023-06-22T00:48:51;100409.38;;;13.69;60.19
77869;BME280;67231;59.144;37.934;2023-06-22T00:51:19;100411.72;;;13.72;60.30
77869;BME280;67231;59.144;37.934;2023-06-22T00:53:51;100417.75;;;13.74;60.42
77869;BME280;67231;59.144;37.934;2023-06-22T00:56:20;100423.91;;;13.75;60.06
77869;BME280;67231;59.144;37.934;2023-06-22T00:58:51;100435.94;;;13.79;60.55
77869;BME280;67231;59.144;37.934;2023-06-22T01:01:19;100451.78;;;13.80;60.50
77869;BME280;67231;59.144;37.934;2023-06-22T01:03:50;100468.44;;;13.82;60.57
77869;BME280;67231;59.144;37.934;2023-06-22T01:06:22;100476.44;;;13.82;60.47
77869;BME280;67231;59.144;37.934;2023-06-22T01:09:05;100458.28;;;13.86;60.51
77869;BME280;67231;59.144;37.934;2023-06-22T01:11:39;100465.28;;;13.87;60.54
77869;BME280;67231;59.144;37.934;2023-06-22T01:14:15;100467.63;;;13.90;60.49
77869;BME280;67231;59.144;37.934;2023-06-22T01:16:46;100469.81;;;13.95;60.29
77869;BME280;67231;59.144;37.934;2023-06-22T01:21:40;100447.63;;;13.94;59.90
77869;BME280;67231;59.144;37.934;2023-06-22T01:24:23;100450.94;;;13.96;60.14
77869;BME280;67231;59.144;37.934;2023-06-22T01:27:28;100457.13;;;13.97;60.43
77869;BME280;67231;59.144;37.934;2023-06-22T01:29:57;100443.78;;;13.97;60.23
77869;BME280;67231;59.144;37.934;2023-06-22T01:32:33;100446.31;;;13.98;60.47
77869;BME280;67231;59.144;37.934;2023-06-22T01:35:01;100434.78;;;13.98;60.21
77869;BME280;67231;59.144;37.934;2023-06-22T01:37:33;100443.47;;;14.00;60.36
77869;BME280;67231;59.144;37.934;2023-06-22T01:40:01;100450.47;;;14.01;60.22
77869;BME280;67231;59.144;37.934;2023-06-22T01:42:30;100461.28;;;13.99;60.04
77869;BME280;67231;59.144;37.934;2023-06-22T01:44:58;100452.28;;;14.00;60.12
77869;BME280;67231;59.144;37.934;2023-06-22T01:47:26;100453.63;;;13.96;60.30
77869;BME280;67231;59.144;37.934;2023-06-22T01:49:55;100455.13;;;13.91;60.67
77869;BME280;67231;59.144;37.934;2023-06-22T01:52:22;100460.78;;;13.88;60.53
77869;BME280;67231;59.144;37.934;2023-06-22T01:54:49;100459.94;;;13.87;60.51
77869;BME280;67231;59.144;37.934;2023-06-22T01:57:16;100451.78;;;13.89;60.58
77869;BME280;67231;59.144;37.934;2023-06-22T02:00:10;100451.25;;;13.85;60.66
77869;BME280;67231;59.144;37.934;2023-06-22T02:02:56;100449.44;;;13.86;60.58
77869;BME280;67231;59.144;37.934;2023-06-22T02:05:31;100448.75;;;13.83;60.56
77869;BME280;67231;59.144;37.934;2023-06-22T02:08:15;100428.44;;;13.82;60.33
77869;BME280;67231;59.144;37.934;2023-06-22T02:10:45;100427.75;;;13.80;60.38
77869;BME280;67231;59.144;37.934;2023-06-22T02:13:13;100427.22;;;13.77;60.25
77869;BME280;67231;59.144;37.934;2023-06-22T02:15:40;100429.06;;;13.76;60.33
77869;BME280;67231;59.144;37.934;2023-06-22T02:18:08;100425.59;;;13.76;60.30
77869;BME280;67231;59.144;37.934;2023-06-22T02:20:55;100438.44;;;13.80;60.65
77869;BME280;67231;59.144;37.934;2023-06-22T02:23:23;100429.09;;;13.84;60.56
77869;BME280;67231;59.144;37.934;2023-06-22T02:25:49;100433.13;;;13.89;60.25
77869;BME280;67231;59.144;37.934;2023-06-22T02:28:16;100436.44;;;13.91;60.38
77869;BME280;67231;59.144;37.934;2023-06-22T02:30:44;100435.94;;;13.87;60.52
77869;BME280;67231;59.144;37.934;2023-06-22T02:33:10;100435.44;;;13.92;60.51
77869;BME280;67231;59.144;37.934;2023-06-22T02:35:37;100434.13;;;13.96;60.30
77869;BME280;67231;59.144;37.934;2023-06-22T02:38:04;100433.78;;;13.99;60.44
77869;BME280;67231;59.144;37.934;2023-06-22T02:40:31;100426.59;;;13.99;60.33
77869;BME280;67231;59.144;37.934;2023-06-22T02:42:59;100434.28;;;13.94;60.32
77869;BME280;67231;59.144;37.934;2023-06-22T02:45:30;100436.59;;;13.89;60.72
77869;BME280;67231;59.144;37.934;2023-06-22T02:47:57;100437.91;;;13.85;60.73
77869;BME280;67231;59.144;37.934;2023-06-22T02:50:24;100443.78;;;13.80;61.18
77869;BME280;67231;59.144;37.934;2023-06-22T02:52:51;100446.44;;;13.80;61.29
77869;BME280;67231;59.144;37.934;2023-06-22T02:55:18;100451.94;;;13.79;61.23
77869;BME280;67231;59.144;37.934;2023-06-22T02:57:52;100461.75;;;13.78;61.46
77869;BME280;67231;59.144;37.934;2023-06-22T03:00:19;100467.59;;;13.82;61.25
77869;BME280;67231;59.144;37.934;2023-06-22T03:02:48;100459.78;;;13.80;61.33
77869;BME280;67231;59.144;37.934;2023-06-22T03:05:16;100463.44;;;13.79;61.33
77869;BME280;67231;59.144;37.934;2023-06-22T03:07:45;100458.41;;;13.76;61.68
77869;BME280;67231;59.144;37.934;2023-06-22T03:10:13;100457.06;;;13.72;61.89
77869;BME280;67231;59.144;37.934;2023-06-22T03:12:41;100449.56;;;13.68;62.05
77869;BME280;67231;59.144;37.934;2023-06-22T03:15:10;100446.34;;;13.64;62.49
77869;BME280;67231;59.144;37.934;2023-06-22T03:17:38;100457.31;;;13.53;63.19
77869;BME280;67231;59.144;37.934;2023-06-22T03:20:07;100457.25;;;13.36;63.73
77869;BME280;67231;59.144;37.934;2023-06-22T03:22:39;100456.84;;;13.23;63.44
77869;BME280;67231;59.144;37.934;2023-06-22T03:25:07;100446.78;;;13.08;64.76
77869;BME280;67231;59.144;37.934;2023-06-22T03:27:42;100449.84;;;12.96;64.99
77869;BME280;67231;59.144;37.934;2023-06-22T03:30:11;100455.91;;;12.80;66.63
77869;BME280;67231;59.144;37.934;2023-06-22T03:32:38;100442.00;;;12.68;67.23
77869;BME280;67231;59.144;37.934;2023-06-22T03:35:06;100433.78;;;12.61;68.71
77869;BME280;67231;59.144;37.934;2023-06-22T03:37:35;100436.25;;;12.54;69.28
77869;BME280;67231;59.144;37.934;2023-06-22T03:40:02;100444.19;;;12.46;69.50
77869;BME280;67231;59.144;37.934;2023-06-22T03:42:34;100435.81;;;12.41;69.43
77869;BME280;67231;59.144;37.934;2023-06-22T03:45:04;100442.56;;;12.35;69.60
77869;BME280;67231;59.144;37.934;2023-06-22T03:47:35;100439.41;;;12.32;70.23
77869;BME280;67231;59.144;37.934;2023-06-22T03:50:03;100425.56;;;12.28;69.94
77869;BME280;67231;59.144;37.934;2023-06-22T03:52:34;100419.25;;;12.29;70.39
77869;BME280;67231;59.144;37.934;2023-06-22T03:55:01;100423.72;;;12.29;70.21
77869;BME280;67231;59.144;37.934;2023-06-22T03:57:33;100428.22;;;12.28;70.93
77869;BME280;67231;59.144;37.934;2023-06-22T04:00:00;100427.06;;;12.31;71.10
77869;BME280;67231;59.144;37.934;2023-06-22T04:02:27;100448.91;;;12.34;70.85
77869;BME280;67231;59.144;37.934;2023-06-22T04:04:54;100455.59;;;12.38;71.28
77869;BME280;67231;59.144;37.934;2023-06-22T04:07:20;100451.69;;;12.51;71.53
77869;BME280;67231;59.144;37.934;2023-06-22T04:09:47;100455.81;;;12.63;71.53
77869;BME280;67231;59.144;37.934;2023-06-22T04:12:13;100461.84;;;12.73;71.59
77869;BME280;67231;59.144;37.934;2023-06-22T04:14:40;100457.56;;;12.81;71.53
77869;BME280;67231;59.144;37.934;2023-06-22T04:17:06;100450.47;;;12.89;71.72
77869;BME280;67231;59.144;37.934;2023-06-22T04:19:32;100438.66;;;12.92;71.90
77869;BME280;67231;59.144;37.934;2023-06-22T04:21:59;100441.72;;;12.97;71.72
77869;BME280;67231;59.144;37.934;2023-06-22T04:24:25;100441.75;;;13.05;72.24
77869;BME280;67231;59.144;37.934;2023-06-22T04:26:52;100441.13;;;13.11;72.02
77869;BME280;67231;59.144;37.934;2023-06-22T04:29:21;100452.09;;;13.08;72.21
77869;BME280;67231;59.144;37.934;2023-06-22T04:31:54;100455.06;;;13.05;72.47
77869;BME280;67231;59.144;37.934;2023-06-22T04:34:26;100465.25;;;13.10;72.64
77869;BME280;67231;59.144;37.934;2023-06-22T04:36:54;100451.31;;;13.16;72.45
77869;BME280;67231;59.144;37.934;2023-06-22T04:39:20;100444.66;;;13.20;72.57
77869;BME280;67231;59.144;37.934;2023-06-22T04:41:47;100431.00;;;13.23;72.89
77869;BME280;67231;59.144;37.934;2023-06-22T04:44:15;100419.53;;;13.23;73.12
77869;BME280;67231;59.144;37.934;2023-06-22T04:46:51;100412.19;;;13.25;73.08
77869;BME280;67231;59.144;37.934;2023-06-22T04:49:27;100378.84;;;13.21;73.36
77869;BME280;67231;59.144;37.934;2023-06-22T04:52:06;100368.16;;;13.12;73.78
77869;BME280;67231;59.144;37.934;2023-06-22T04:54:34;100350.53;;;13.11;74.13
77869;BME280;67231;59.144;37.934;2023-06-22T04:57:02;100336.53;;;13.18;73.83
77869;BME280;67231;59.144;37.934;2023-06-22T04:59:30;100332.25;;;13.25;74.01
77869;BME280;67231;59.144;37.934;2023-06-22T05:01:59;100336.28;;;13.29;73.66
77869;BME280;67231;59.144;37.934;2023-06-22T05:04:27;100348.97;;;13.35;73.23
77869;BME280;67231;59.144;37.934;2023-06-22T05:07:02;100362.81;;;13.39;72.75
77869;BME280;67231;59.144;37.934;2023-06-22T05:09:29;100367.63;;;13.43;73.05
77869;BME280;67231;59.144;37.934;2023-06-22T05:11:56;100367.16;;;13.48;72.98
77869;BME280;67231;59.144;37.934;2023-06-22T05:14:23;100382.66;;;13.53;73.17
77869;BME280;67231;59.144;37.934;2023-06-22T05:16:49;100399.53;;;13.53;73.03
77869;BME280;67231;59.144;37.934;2023-06-22T05:19:18;100406.00;;;13.51;72.84
77869;BME280;67231;59.144;37.934;2023-06-22T05:21:44;100417.16;;;13.46;73.46
77869;BME280;67231;59.144;37.934;2023-06-22T05:24:10;100409.94;;;13.38;73.10
77869;BME280;67231;59.144;37.934;2023-06-22T05:27:04;100421.22;;;13.32;73.53
77869;BME280;67231;59.144;37.934;2023-06-22T05:29:30;100419.22;;;13.26;73.88
77869;BME280;67231;59.144;37.934;2023-06-22T05:31:57;100412.19;;;13.25;73.94
77869;BME280;67231;59.144;37.934;2023-06-22T05:34:23;100409.38;;;13.26;74.78
77869;BME280;67231;59.144;37.934;2023-06-22T05:36:49;100403.22;;;13.26;75.02
77869;BME280;67231;59.144;37.934;2023-06-22T05:39:15;100393.53;;;13.25;75.36
77869;BME280;67231;59.144;37.934;2023-06-22T05:41:42;100397.03;;;13.25;75.34
77869;BME280;67231;59.144;37.934;2023-06-22T05:44:11;100390.06;;;13.24;75.20
77869;BME280;67231;59.144;37.934;2023-06-22T05:46:40;100402.84;;;13.21;75.36
77869;BME280;67231;59.144;37.934;2023-06-22T05:49:11;100396.84;;;13.19;75.78
77869;BME280;67231;59.144;37.934;2023-06-22T05:51:48;100387.88;;;13.20;75.56
77869;BME280;67231;59.144;37.934;2023-06-22T05:54:20;100389.53;;;13.21;75.06
77869;BME280;67231;59.144;37.934;2023-06-22T05:56:47;100383.53;;;13.19;75.16
77869;BME280;67231;59.144;37.934;2023-06-22T05:59:13;100378.34;;;13.17;75.53
77869;BME280;67231;59.144;37.934;2023-06-22T06:01:40;100380.34;;;13.15;75.73
77869;BME280;67231;59.144;37.934;2023-06-22T06:04:06;100375.34;;;13.12;75.97
77869;BME280;67231;59.144;37.934;2023-06-22T06:06:36;100377.50;;;13.08;76.44
77869;BME280;67231;59.144;37.934;2023-06-22T06:09:04;100384.78;;;13.06;76.73
77869;BME280;67231;59.144;37.934;2023-06-22T06:11:30;100380.47;;;13.05;76.47
77869;BME280;67231;59.144;37.934;2023-06-22T06:13:57;100386.81;;;13.12;76.55
77869;BME280;67231;59.144;37.934;2023-06-22T06:16:23;100391.84;;;13.16;76.10
77869;BME280;67231;59.144;37.934;2023-06-22T06:18:50;100393.16;;;13.11;76.13
77869;BME280;67231;59.144;37.934;2023-06-22T06:21:16;100391.31;;;13.12;76.19
77869;BME280;67231;59.144;37.934;2023-06-22T06:23:42;100391.16;;;13.14;76.48
77869;BME280;67231;59.144;37.934;2023-06-22T06:26:09;100396.34;;;13.15;76.40
77869;BME280;67231;59.144;37.934;2023-06-22T06:28:35;100394.34;;;13.17;76.28
77869;BME280;67231;59.144;37.934;2023-06-22T06:31:01;100383.38;;;13.20;76.11
77869;BME280;67231;59.144;37.934;2023-06-22T06:33:27;100386.06;;;13.28;76.16
77869;BME280;67231;59.144;37.934;2023-06-22T06:35:54;100389.31;;;13.40;76.48
77869;BME280;67231;59.144;37.934;2023-06-22T06:38:21;100388.66;;;13.46;76.08
77869;BME280;67231;59.144;37.934;2023-06-22T06:40:48;100379.50;;;13.49;75.97
77869;BME280;67231;59.144;37.934;2023-06-22T06:43:14;100388.97;;;13.43;76.27
77869;BME280;67231;59.144;37.934;2023-06-22T06:45:41;100389.63;;;13.37;76.70
77869;BME280;67231;59.144;37.934;2023-06-22T06:48:07;100383.22;;;13.30;76.53
77869;BME280;67231;59.144;37.934;2023-06-22T06:50:33;100380.22;;;13.25;76.82
77869;BME280;67231;59.144;37.934;2023-06-22T06:52:59;100379.91;;;13.28;76.52
77869;BME280;67231;59.144;37.934;2023-06-22T06:55:25;100385.91;;;13.30;77.20
77869;BME280;67231;59.144;37.934;2023-06-22T06:57:55;100387.13;;;13.36;76.61
77869;BME280;67231;59.144;37.934;2023-06-22T07:00:21;100384.00;;;13.40;76.69
77869;BME280;67231;59.144;37.934;2023-06-22T07:02:47;100384.34;;;13.54;76.62
77869;BME280;67231;59.144;37.934;2023-06-22T07:05:14;100375.00;;;13.58;76.58
77869;BME280;67231;59.144;37.934;2023-06-22T07:07:40;100381.69;;;13.62;76.48
77869;BME280;67231;59.144;37.934;2023-06-22T07:10:08;100378.03;;;13.63;76.44
77869;BME280;67231;59.144;37.934;2023-06-22T07:12:34;100374.91;;;13.68;76.13
77869;BME280;67231;59.144;37.934;2023-06-22T07:15:05;100363.03;;;13.70;76.36
77869;BME280;67231;59.144;37.934;2023-06-22T07:17:34;100370.72;;;13.81;75.90
77869;BME280;67231;59.144;37.934;2023-06-22T07:20:02;100368.59;;;13.93;75.82
77869;BME280;67231;59.144;37.934;2023-06-22T07:22:43;100377.91;;;14.06;75.15
77869;BME280;67231;59.144;37.934;2023-06-22T07:25:11;100357.75;;;14.11;75.49
77869;BME280;67231;59.144;37.934;2023-06-22T07:28:01;100351.56;;;14.27;74.67
77869;BME280;67231;59.144;37.934;2023-06-22T07:30:29;100348.22;;;14.42;74.18
77869;BME280;67231;59.144;37.934;2023-06-22T07:32:56;100351.53;;;14.52;74.11
77869;BME280;67231;59.144;37.934;2023-06-22T07:35:24;100354.34;;;14.58;73.70
77869;BME280;67231;59.144;37.934;2023-06-22T07:37:51;100357.69;;;14.52;73.42
77869;BME280;67231;59.144;37.934;2023-06-22T07:40:17;100344.69;;;14.49;73.30
77869;BME280;67231;59.144;37.934;2023-06-22T07:42:44;100350.38;;;14.54;73.49
77869;BME280;67231;59.144;37.934;2023-06-22T07:45:10;100347.72;;;14.46;73.57
77869;BME280;67231;59.144;37.934;2023-06-22T07:47:36;100357.41;;;14.31;73.87
77869;BME280;67231;59.144;37.934;2023-06-22T07:50:03;100354.09;;;14.20;74.21
77869;BME280;67231;59.144;37.934;2023-06-22T07:52:32;100349.41;;;14.14;74.47
77869;BME280;67231;59.144;37.934;2023-06-22T07:54:59;100355.75;;;14.05;74.38
77869;BME280;67231;59.144;37.934;2023-06-22T07:57:25;100346.06;;;13.96;74.63
77869;BME280;67231;59.144;37.934;2023-06-22T08:00:02;100348.06;;;13.94;74.65
77869;BME280;67231;59.144;37.934;2023-06-22T08:02:40;100345.41;;;13.94;74.70
77869;BME280;67231;59.144;37.934;2023-06-22T08:05:08;100342.41;;;13.97;74.41
77869;BME280;67231;59.144;37.934;2023-06-22T08:07:35;100341.91;;;13.93;74.80
77869;BME280;67231;59.144;37.934;2023-06-22T08:10:04;100342.75;;;13.86;74.26
77869;BME280;67231;59.144;37.934;2023-06-22T08:12:31;100339.56;;;13.82;74.20
77869;BME280;67231;59.144;37.934;2023-06-22T08:14:57;100334.25;;;13.82;74.26
77869;BME280;67231;59.144;37.934;2023-06-22T08:17:24;100331.91;;;13.87;74.08
77869;BME280;67231;59.144;37.934;2023-06-22T08:19:50;100335.88;;;13.91;73.96
77869;BME280;67231;59.144;37.934;2023-06-22T08:22:17;100337.56;;;13.92;73.71
77869;BME280;67231;59.144;37.934;2023-06-22T08:24:43;100343.25;;;13.97;73.49
77869;BME280;67231;59.144;37.934;2023-06-22T08:27:10;100345.41;;;14.02;73.42
77869;BME280;67231;59.144;37.934;2023-06-22T08:29:39;100334.72;;;14.02;73.04
77869;BME280;67231;59.144;37.934;2023-06-22T08:32:05;100334.41;;;14.13;72.72
77869;BME280;67231;59.144;37.934;2023-06-22T08:34:32;100319.69;;;14.34;71.70
77869;BME280;67231;59.144;37.934;2023-06-22T08:36:58;100316.97;;;14.67;71.37
77869;BME280;67231;59.144;37.934;2023-06-22T08:39:24;100334.94;;;14.98;70.43
77869;BME280;67231;59.144;37.934;2023-06-22T08:41:51;100327.41;;;14.93;69.75
77869;BME280;67231;59.144;37.934;2023-06-22T08:44:18;100331.13;;;14.84;69.51
77869;BME280;67231;59.144;37.934;2023-06-22T08:46:45;100335.00;;;14.73;69.74
77869;BME280;67231;59.144;37.934;2023-06-22T08:49:11;100328.38;;;14.61;69.97
77869;BME280;67231;59.144;37.934;2023-06-22T08:51:37;100333.72;;;14.61;69.82
77869;BME280;67231;59.144;37.934;2023-06-22T08:54:04;100328.38;;;14.61;69.82
77869;BME280;67231;59.144;37.934;2023-06-22T08:56:30;100330.66;;;14.55;69.80
77869;BME280;67231;59.144;37.934;2023-06-22T08:58:57;100320.69;;;14.41;69.74
77869;BME280;67231;59.144;37.934;2023-06-22T09:01:23;100324.03;;;14.35;69.86
77869;BME280;67231;59.144;37.934;2023-06-22T09:03:49;100314.53;;;14.32;70.24
77869;BME280;67231;59.144;37.934;2023-06-22T09:06:21;100321.19;;;14.36;69.73
77869;BME280;67231;59.144;37.934;2023-06-22T09:08:48;100313.72;;;14.32;69.79
77869;BME280;67231;59.144;37.934;2023-06-22T09:11:15;100322.69;;;14.39;69.62
77869;BME280;67231;59.144;37.934;2023-06-22T09:13:42;100321.03;;;14.46;69.18
77869;BME280;67231;59.144;37.934;2023-06-22T09:16:09;100327.19;;;14.47;69.07
77869;BME280;67231;59.144;37.934;2023-06-22T09:18:36;100320.31;;;14.52;68.80
77869;BME280;67231;59.144;37.934;2023-06-22T09:21:02;100318.31;;;14.71;68.32
77869;BME280;67231;59.144;37.934;2023-06-22T09:23:28;100319.19;;;15.03;67.61
77869;BME280;67231;59.144;37.934;2023-06-22T09:25:54;100313.06;;;15.25;67.36
77869;BME280;67231;59.144;37.934;2023-06-22T09:28:21;100322.66;;;15.43;67.09
77869;BME280;67231;59.144;37.934;2023-06-22T09:30:47;100308.66;;;15.64;66.06
77869;BME280;67231;59.144;37.934;2023-06-22T09:33:13;100309.91;;;15.99;65.52
77869;BME280;67231;59.144;37.934;2023-06-22T09:35:39;100313.28;;;16.16;65.13
77869;BME280;67231;59.144;37.934;2023-06-22T09:38:05;100325.09;;;16.22;64.79
77869;BME280;67231;59.144;37.934;2023-06-22T09:40:32;100318.38;;;16.26;64.77
77869;BME280;67231;59.144;37.934;2023-06-22T09:43:01;100312.47;;;16.31;64.25
77869;BME280;67231;59.144;37.934;2023-06-22T09:45:27;100306.44;;;16.29;64.10
77869;BME280;67231;59.144;37.934;2023-06-22T09:47:54;100318.56;;;16.39;64.19
77869;BME280;67231;59.144;37.934;2023-06-22T09:50:20;100330.72;;;16.27;64.19
77869;BME280;67231;59.144;37.934;2023-06-22T09:52:46;100323.66;;;15.96;64.66
77869;BME280;67231;59.144;37.934;2023-06-22T09:55:17;100316.69;;;15.87;65.09
77869;BME280;67231;59.144;37.934;2023-06-22T09:57:45;100323.25;;;15.84;65.17
77869;BME280;67231;59.144;37.934;2023-06-22T10:00:12;100315.94;;;15.78;65.11
77869;BME280;67231;59.144;37.934;2023-06-22T10:02:42;100307.72;;;15.80;64.52
77869;BME280;67231;59.144;37.934;2023-06-22T10:05:08;100315.31;;;15.91;64.49
77869;BME280;67231;59.144;37.934;2023-06-22T10:07:34;100303.38;;;16.02;64.60
77869;BME280;67231;59.144;37.934;2023-06-22T10:10:06;100302.16;;;16.05;64.35
77869;BME280;67231;59.144;37.934;2023-06-22T10:12:33;100294.84;;;15.98;64.44
77869;BME280;67231;59.144;37.934;2023-06-22T10:14:59;100298.47;;;16.06;64.24
77869;BME280;67231;59.144;37.934;2023-06-22T10:17:25;100283.34;;;16.13;63.79
77869;BME280;67231;59.144;37.934;2023-06-22T10:19:51;100311.59;;;16.15;63.97
77869;BME280;67231;59.144;37.934;2023-06-22T10:22:18;100312.06;;;16.19;63.22
77869;BME280;67231;59.144;37.934;2023-06-22T10:24:44;100301.50;;;16.02;63.31
77869;BME280;67231;59.144;37.934;2023-06-22T10:27:11;100306.75;;;15.96;63.30
77869;BME280;67231;59.144;37.934;2023-06-22T10:29:37;100308.38;;;15.82;63.68
77869;BME280;67231;59.144;37.934;2023-06-22T10:32:04;100313.28;;;15.70;63.96
77869;BME280;67231;59.144;37.934;2023-06-22T10:34:30;100304.97;;;15.65;64.00
77869;BME280;67231;59.144;37.934;2023-06-22T10:36:56;100310.13;;;15.66;63.72
77869;BME280;67231;59.144;37.934;2023-06-22T10:39:23;100306.84;;;15.56;64.20
77869;BME280;67231;59.144;37.934;2023-06-22T10:41:49;100297.09;;;15.40;64.04
77869;BME280;67231;59.144;37.934;2023-06-22T10:44:15;100300.59;;;15.41;64.26
77869;BME280;67231;59.144;37.934;2023-06-22T10:46:43;100293.84;;;15.53;64.20
77869;BME280;67231;59.144;37.934;2023-06-22T10:49:09;100299.13;;;15.61;63.73
77869;BME280;67231;59.144;37.934;2023-06-22T10:51:35;100301.63;;;15.63;64.25
77869;BME280;67231;59.144;37.934;2023-06-22T10:54:02;100291.72;;;15.72;63.94
77869;BME280;67231;59.144;37.934;2023-06-22T10:56:30;100290.03;;;15.71;63.69
77869;BME280;67231;59.144;37.934;2023-06-22T10:58:56;100296.81;;;15.58;63.74
77869;BME280;67231;59.144;37.934;2023-06-22T11:01:22;100289.88;;;15.49;64.17
77869;BME280;67231;59.144;37.934;2023-06-22T11:03:48;100282.19;;;15.46;64.47
77869;BME280;67231;59.144;37.934;2023-06-22T11:06:15;100296.75;;;15.43;64.48
77869;BME280;67231;59.144;37.934;2023-06-22T11:08:44;100295.91;;;15.43;64.36
77869;BME280;67231;59.144;37.934;2023-06-22T11:11:10;100302.88;;;15.52;64.36
77869;BME280;67231;59.144;37.934;2023-06-22T11:13:36;100303.34;;;15.56;64.20
77869;BME280;67231;59.144;37.934;2023-06-22T11:16:03;100308.66;;;15.64;64.09
77869;BME280;67231;59.144;37.934;2023-06-22T11:18:31;100297.47;;;15.60;64.59
77869;BME280;67231;59.144;37.934;2023-06-22T11:20:59;100291.78;;;15.63;64.34
77869;BME280;67231;59.144;37.934;2023-06-22T11:23:25;100313.28;;;15.70;64.13
77869;BME280;67231;59.144;37.934;2023-06-22T11:25:54;100306.69;;;15.58;64.28
77869;BME280;67231;59.144;37.934;2023-06-22T11:28:20;100304.94;;;15.42;64.76
77869;BME280;67231;59.144;37.934;2023-06-22T11:30:47;100298.31;;;15.29;64.83
77869;BME280;67231;59.144;37.934;2023-06-22T11:33:13;100300.69;;;15.24;65.13
77869;BME280;67231;59.144;37.934;2023-06-22T11:35:39;100295.41;;;15.16;65.20
77869;BME280;67231;59.144;37.934;2023-06-22T11:38:06;100286.44;;;15.09;65.94
77869;BME280;67231;59.144;37.934;2023-06-22T11:40:32;100280.06;;;15.10;65.74
77869;BME280;67231;59.144;37.934;2023-06-22T11:42:58;100278.94;;;15.04;66.15
77869;BME280;67231;59.144;37.934;2023-06-22T11:45:24;100283.81;;;14.92;66.34
77869;BME280;67231;59.144;37.934;2023-06-22T11:47:51;100265.84;;;14.86;66.54
77869;BME280;67231;59.144;37.934;2023-06-22T11:50:17;100273.16;;;14.84;66.40
77869;BME280;67231;59.144;37.934;2023-06-22T11:52:43;100268.69;;;14.77;66.49
77869;BME280;67231;59.144;37.934;2023-06-22T11:55:10;100253.16;;;14.80;66.50
77869;BME280;67231;59.144;37.934;2023-06-22T11:57:38;100257.09;;;14.92;66.70
77869;BME280;67231;59.144;37.934;2023-06-22T12:00:05;100269.19;;;15.11;66.28
77869;BME280;67231;59.144;37.934;2023-06-22T12:02:42;100252.28;;;15.19;65.81
77869;BME280;67231;59.144;37.934;2023-06-22T12:05:08;100251.94;;;15.22;65.69
77869;BME280;67231;59.144;37.934;2023-06-22T12:07:34;100248.50;;;15.37;65.69
77869;BME280;67231;59.144;37.934;2023-06-22T12:10:01;100247.38;;;15.54;65.25
77869;BME280;67231;59.144;37.934;2023-06-22T12:12:30;100252.28;;;15.65;65.12
77869;BME280;67231;59.144;37.934;2023-06-22T12:14:57;100250.63;;;15.64;65.19
77869;BME280;67231;59.144;37.934;2023-06-22T12:17:23;100245.97;;;15.58;65.74
77869;BME280;67231;59.144;37.934;2023-06-22T12:19:49;100255.69;;;15.59;65.20
77869;BME280;67231;59.144;37.934;2023-06-22T12:22:16;100245.41;;;15.48;65.34
77869;BME280;67231;59.144;37.934;2023-06-22T12:24:42;100242.19;;;15.53;65.51
77869;BME280;67231;59.144;37.934;2023-06-22T12:27:08;100244.16;;;15.59;65.18
77869;BME280;67231;59.144;37.934;2023-06-22T12:29:35;100241.88;;;15.71;65.30
77869;BME280;67231;59.144;37.934;2023-06-22T12:32:02;100233.44;;;15.82;65.13
77869;BME280;67231;59.144;37.934;2023-06-22T12:34:28;100237.72;;;15.91;64.74
77869;BME280;67231;59.144;37.934;2023-06-22T12:36:54;100243.72;;;15.93;64.68
77869;BME280;67231;59.144;37.934;2023-06-22T12:39:21;100248.63;;;16.05;64.66
77869;BME280;67231;59.144;37.934;2023-06-22T12:41:47;100238.94;;;16.18;63.97
77869;BME280;67231;59.144;37.934;2023-06-22T12:44:13;100251.78;;;16.23;63.76
77869;BME280;67231;59.144;37.934;2023-06-22T12:46:39;100240.91;;;16.25;64.13
77869;BME280;67231;59.144;37.934;2023-06-22T12:49:06;100257.34;;;16.36;64.13